MAPA DE AEROPUERTO

INFORMACIÓN METAR y TAF


Deprecated: The each() function is deprecated. This message will be suppressed on further calls in /home/customer/www/clickair-va.com/public_html/VAM/vam/helpers/get_metar.php on line 20
METAR FOR LEST
ADDS - METARS form results

(0729 UTC 07 July 2022)
Data provider http://aviationweather.gov/metar/data/
 
METAR text: LEST 070700Z 07004KT 020V120 CAVOK 16/12 Q1027 NOSIG
Conditions at: LEST (SANTIAGO/LABACOL, ES) observed 0700 UTC 07 July 2022
Temperature: 16.0°C (61°F)
Dewpoint: 12.0°C (54°F) [RH = 77%]
Pressure (altimeter): 30.32 inches Hg (1027.0 mb)
Winds: from the ENE (70 degrees) at 5 MPH (4 knots; 2.1 m/s)
Visibility: 6 or more miles (10+ km)
Ceiling: ceiling and visibility are OK
Clouds: unknown
Weather: no significant weather observed at this time

METAR text: LEST 070630Z 05004KT 350V090 CAVOK 16/12 Q1027 NOSIG
Conditions at: LEST (SANTIAGO/LABACOL, ES) observed 0630 UTC 07 July 2022
Temperature: 16.0°C (61°F)
Dewpoint: 12.0°C (54°F) [RH = 77%]
Pressure (altimeter): 30.32 inches Hg (1027.0 mb)
Winds: from the NE (50 degrees) at 5 MPH (4 knots; 2.1 m/s)
Visibility: 6 or more miles (10+ km)
Ceiling: ceiling and visibility are OK
Clouds: unknown
Weather: no significant weather observed at this time

Forecast for: LEST (SANTIAGO/LABACOL, ES)
Text: TAF LEST 070500Z 0706/0806 04009KT CAVOK TX28/0714Z TN13/0805Z
Forecast period: 0600 UTC 07 July 2022 to 0600 UTC 08 July 2022
Forecast type: FROM: standard forecast or significant change
Winds: from the NE (40 degrees) at 10 MPH (9 knots; 4.6 m/s)
Visibility: 6 or more miles (10+ km)
Ceiling: unknown
Clouds: missing
Weather: no significant weather forecast for this period